British Envoy — MNAN4 — position and weather

sailwx.info

Track history (hours):
 
Tides and Currents Weather Stations Pressure Air Temp Water Temp Dewpoint Dewpoint Depression Visibility Wind Speed Wind Dir Waves Ship Positions

British Envoy

Last reported at 2014-Aug-21 09:33 UTC. Time now 2014-Aug-21 10:16 UTC.
Position S 33°53' E 018°25'.

Length 184.2 m; beam 27.4 m; draft 11.3 m.

Type: Tanker. MMSI: 235011280.

Date/timePositionNaut miles runAvg speedWind from/ knotsBaromVisibWave heightAir tempDewpointWater temp
2014-Aug-21 09:33S 33°53' E 018°25'13 2.9
2014-Aug-21 05:04S 34°02' E 018°14'712.9
2014-Aug-21 04:33S 34°08' E 018°10'1312.6
2014-Aug-21 03:33S 34°19' E 018°02'1212.2
2014-Aug-21 02:32S 34°31' E 018°01'37 4.4
2014-Aug-20 18:00S 35°06' E 018°18'2211.9 160 / 321014.510.8 2.014.5 4.9
2014-Aug-20 16:10S 35°08' E 018°44'314.7
2014-Aug-20 16:00S 35°06' E 018°42'5711.7 160 / 321011.9 5.4 2.015.0 4.2
2014-Aug-20 11:08S 35°11' E 019°51'811.0
2014-Aug-20 10:24S 35°11' E 020°01'9712.0
2014-Aug-20 02:19S 34°48' E 021°56'14211.9
2014-Aug-19 14:26S 34°28' E 024°46'137 5.0
2014-Aug-18 11:16S 33°43' E 027°23'3116.4
2014-Aug-18 09:22S 33°21' E 027°50'1315.6
2014-Aug-18 08:33S 33°11' E 027°58'67 9.0
2014-Aug-18 01:07S 32°28' E 029°00'1012.1
2014-Aug-18 00:16S 32°21' E 029°09'7912.5
2014-Aug-17 18:00S 31°24' E 030°12'7314.9 320 / 231021.610.8 1.520.018.4
2014-Aug-17 13:08S 30°23' E 030°58'712.5
2014-Aug-17 12:33S 30°17' E 031°02'1212.2
2014-Aug-17 11:34S 30°06' E 031°07'1212.5
2014-Aug-17 10:34S 29°53' E 031°07'5 4.6
2014-Aug-17 09:34S 29°53' E 031°02'0 0.0
2014-Aug-17 08:15S 29°53' E 031°02'0 0.0
2014-Aug-15 11:33S 29°53' E 031°02'8 8.0
2014-Aug-15 10:33S 29°49' E 031°10'2 1.7
2014-Aug-15 09:33S 29°50' E 031°11'3 3.1
2014-Aug-15 08:33S 29°48' E 031°09'1 0.8
2014-Aug-15 07:33S 29°49' E 031°10'1 0.6
2014-Aug-15 06:33S 29°49' E 031°10'1 0.6
2014-Aug-15 05:33S 29°50' E 031°10'0 0.3
2014-Aug-15 04:33S 29°50' E 031°11'0 0.3
2014-Aug-15 03:33S 29°50' E 031°10'0 0.4
2014-Aug-15 02:33S 29°51' E 031°10'2 2.3
2014-Aug-15 01:33S 29°49' E 031°13'1312.5
2014-Aug-15 00:33S 29°40' E 031°23'1212.4
2014-Aug-14 23:33S 29°32' E 031°33'1312.7
2014-Aug-14 22:33S 29°27' E 031°47'1612.3
2014-Aug-14 21:15S 29°13' E 031°55'9 9.2
2014-Aug-14 20:16S 29°22' E 031°55'6 8.4
2014-Aug-14 19:31S 29°27' E 031°58'1815.1
2014-Aug-14 18:18S 29°10' E 032°04'22 7.8
2014-Aug-14 15:33S 28°48' E 032°03'0 0.0
2014-Aug-13 21:30S 28°48' E 032°03'24 4.9
2014-Aug-13 16:32S 29°13' E 031°59'1010.7
2014-Aug-13 15:33S 29°19' E 031°50'81 2.3
2014-Aug-12 05:03S 30°25' E 030°56'  
Track history (hours):
 
Tides and Currents Weather Stations Pressure Air Temp Water Temp Dewpoint Dewpoint Depression Visibility Wind Speed Wind Dir Waves Ship Positions

British Envoy

Last reported at 2014-Aug-21 09:33 UTC. Time now 2014-Aug-21 10:16 UTC.
Position S 33°53' E 018°25'.

Length 184.2 m; beam 27.4 m; draft 11.3 m.

Type: Tanker. MMSI: 235011280.

Date/timePositionNaut miles runAvg speedWind from/ knotsBaromVisibWave heightAir tempDewpointWater temp
2014-Aug-21 09:33S 33°53' E 018°25'13 2.9
2014-Aug-21 05:04S 34°02' E 018°14'712.9
2014-Aug-21 04:33S 34°08' E 018°10'1312.6
2014-Aug-21 03:33S 34°19' E 018°02'1212.2
2014-Aug-21 02:32S 34°31' E 018°01'37 4.4
2014-Aug-20 18:00S 35°06' E 018°18'2211.9 160 / 321014.510.8 2.014.5 4.9
2014-Aug-20 16:10S 35°08' E 018°44'314.7
2014-Aug-20 16:00S 35°06' E 018°42'5711.7 160 / 321011.9 5.4 2.015.0 4.2
2014-Aug-20 11:08S 35°11' E 019°51'811.0
2014-Aug-20 10:24S 35°11' E 020°01'9712.0
2014-Aug-20 02:19S 34°48' E 021°56'14211.9
2014-Aug-19 14:26S 34°28' E 024°46'137 5.0
2014-Aug-18 11:16S 33°43' E 027°23'3116.4
2014-Aug-18 09:22S 33°21' E 027°50'1315.6
2014-Aug-18 08:33S 33°11' E 027°58'67 9.0
2014-Aug-18 01:07S 32°28' E 029°00'1012.1
2014-Aug-18 00:16S 32°21' E 029°09'7912.5
2014-Aug-17 18:00S 31°24' E 030°12'7314.9 320 / 231021.610.8 1.520.018.4
2014-Aug-17 13:08S 30°23' E 030°58'712.5
2014-Aug-17 12:33S 30°17' E 031°02'1212.2
2014-Aug-17 11:34S 30°06' E 031°07'1212.5
2014-Aug-17 10:34S 29°53' E 031°07'5 4.6
2014-Aug-17 09:34S 29°53' E 031°02'0 0.0
2014-Aug-17 08:15S 29°53' E 031°02'0 0.0
2014-Aug-15 11:33S 29°53' E 031°02'8 8.0
2014-Aug-15 10:33S 29°49' E 031°10'2 1.7
2014-Aug-15 09:33S 29°50' E 031°11'3 3.1
2014-Aug-15 08:33S 29°48' E 031°09'1 0.8
2014-Aug-15 07:33S 29°49' E 031°10'1 0.6
2014-Aug-15 06:33S 29°49' E 031°10'1 0.6
2014-Aug-15 05:33S 29°50' E 031°10'0 0.3
2014-Aug-15 04:33S 29°50' E 031°11'0 0.3
2014-Aug-15 03:33S 29°50' E 031°10'0 0.4
2014-Aug-15 02:33S 29°51' E 031°10'2 2.3
2014-Aug-15 01:33S 29°49' E 031°13'1312.5
2014-Aug-15 00:33S 29°40' E 031°23'1212.4
2014-Aug-14 23:33S 29°32' E 031°33'1312.7
2014-Aug-14 22:33S 29°27' E 031°47'1612.3
2014-Aug-14 21:15S 29°13' E 031°55'9 9.2
2014-Aug-14 20:16S 29°22' E 031°55'6 8.4
2014-Aug-14 19:31S 29°27' E 031°58'1815.1
2014-Aug-14 18:18S 29°10' E 032°04'22 7.8
2014-Aug-14 15:33S 28°48' E 032°03'0 0.0
2014-Aug-13 21:30S 28°48' E 032°03'24 4.9
2014-Aug-13 16:32S 29°13' E 031°59'1010.7
2014-Aug-13 15:33S 29°19' E 031°50'81 2.3
2014-Aug-12 05:03S 30°25' E 030°56'  

Dump ship's entire track history